createdAt,value
2017-05-26T15:44:49.160Z,21.80
2017-05-26T15:47:17.564Z,22.10
2017-05-26T15:49:45.949Z,22.40
2017-05-26T15:52:14.411Z,22.40
2017-05-26T15:54:42.753Z,22.50
2017-05-26T15:57:12.005Z,22.50
2017-05-26T15:59:43.535Z,22.60
2017-05-26T16:02:13.291Z,22.60
2017-05-26T16:04:41.747Z,22.50
2017-05-26T16:07:10.566Z,22.50
2017-05-26T16:09:39.035Z,22.50
2017-05-26T16:12:08.328Z,22.50
2017-05-26T16:14:38.225Z,22.50
2017-05-26T16:17:06.714Z,22.40
2017-05-26T16:19:35.103Z,22.40
2017-05-26T16:22:03.577Z,22.40
2017-05-26T16:24:31.982Z,22.30
2017-05-26T16:27:00.328Z,22.40
2017-05-26T16:29:29.792Z,22.30
2017-05-26T16:31:58.218Z,22.40
2017-05-26T16:34:25.798Z,22.30
2017-05-26T16:36:54.179Z,22.40
2017-05-26T16:39:24.415Z,22.30
2017-05-26T16:41:54.835Z,22.30
2017-05-26T16:44:28.585Z,22.30
2017-05-26T16:47:00.802Z,22.20
2017-05-26T16:49:29.394Z,22.30
2017-05-26T16:51:57.860Z,22.30
2017-05-26T16:54:28.092Z,22.10
2017-05-26T16:56:56.595Z,22.00
2017-05-26T16:59:25.029Z,22.00
2017-05-26T17:01:53.836Z,22.10
2017-05-26T17:04:23.679Z,22.00
2017-05-26T17:06:59.151Z,22.00
2017-05-26T17:09:27.807Z,21.90
2017-05-26T17:11:56.245Z,22.00
2017-05-26T17:14:24.799Z,22.00
2017-05-26T17:16:53.369Z,22.00
2017-05-26T17:19:21.716Z,22.00
2017-05-26T17:21:50.142Z,22.00
2017-05-26T17:24:18.494Z,21.90
2017-05-26T17:26:46.817Z,21.90
2017-05-26T17:29:15.135Z,21.90
2017-05-26T17:31:43.489Z,21.90
2017-05-26T17:34:11.811Z,21.90
2017-05-26T17:36:40.595Z,21.70
2017-05-26T17:39:09.099Z,21.60
2017-05-26T17:41:37.471Z,21.60
2017-05-26T17:44:06.420Z,21.60
2017-05-26T17:46:34.821Z,21.60
2017-05-26T17:49:03.943Z,21.50
2017-05-26T17:51:32.325Z,21.60
2017-05-26T17:54:00.774Z,21.60
2017-05-26T17:56:29.134Z,21.50
2017-05-26T17:58:57.558Z,21.40
2017-05-26T18:01:25.985Z,21.30
2017-05-26T18:03:54.346Z,21.40
2017-05-26T18:06:23.285Z,21.30
2017-05-26T18:08:50.917Z,21.30
2017-05-26T18:11:19.580Z,21.30
2017-05-26T18:13:47.984Z,21.20
2017-05-26T18:16:17.366Z,21.20
2017-05-26T18:18:45.745Z,21.10
2017-05-26T18:21:14.092Z,21.00
2017-05-26T18:23:42.507Z,20.90
2017-05-26T18:26:10.982Z,20.90
2017-05-26T18:28:39.406Z,20.90
2017-05-26T18:31:08.349Z,20.90
2017-05-26T18:33:39.891Z,20.80
2017-05-26T18:36:08.302Z,20.80
2017-05-26T18:38:37.790Z,20.60
2017-05-26T18:41:06.150Z,20.50
2017-05-26T18:43:34.710Z,20.50
2017-05-26T18:46:03.125Z,20.40
2017-05-26T18:48:31.433Z,20.30
2017-05-26T18:50:59.862Z,20.30
2017-05-26T18:53:29.625Z,20.20
2017-05-26T18:55:58.077Z,20.20
2017-05-26T18:58:26.491Z,20.00
2017-05-26T19:00:54.865Z,20.00
2017-05-26T19:03:23.316Z,19.90
2017-05-26T19:05:50.974Z,19.90
2017-05-26T19:08:19.301Z,19.50
2017-05-26T19:10:47.736Z,19.50
2017-05-26T19:13:16.973Z,19.40
2017-05-26T19:15:45.485Z,19.30
2017-05-26T19:18:13.994Z,19.30
2017-05-26T19:20:42.440Z,19.30
2017-05-26T19:23:10.888Z,19.30
2017-05-26T19:25:40.420Z,19.20
2017-05-26T19:28:08.987Z,19.20
2017-05-26T19:30:37.389Z,19.10
2017-05-26T19:33:06.578Z,19.10
2017-05-26T19:35:35.001Z,19.10
2017-05-26T19:38:04.012Z,18.90
2017-05-26T19:40:32.599Z,18.60
2017-05-26T19:43:01.257Z,18.50
2017-05-26T19:45:29.771Z,18.30
2017-05-26T19:47:59.139Z,18.00
2017-05-26T19:50:27.529Z,18.00
2017-05-26T19:52:55.925Z,17.90
2017-05-26T19:55:24.331Z,17.80
2017-05-26T19:57:54.639Z,17.60
2017-05-26T20:00:23.060Z,17.60
2017-05-26T20:02:53.211Z,17.40
2017-05-26T20:05:21.614Z,17.30
2017-05-26T20:07:50.126Z,17.30
2017-05-26T20:10:18.671Z,17.40
2017-05-26T20:12:48.094Z,17.30
2017-05-26T20:15:17.180Z,17.20
2017-05-26T20:17:48.467Z,17.00
2017-05-26T20:20:17.026Z,17.00
2017-05-26T20:22:45.549Z,16.80
2017-05-26T20:25:15.190Z,16.70
2017-05-26T20:27:44.113Z,16.70
2017-05-26T20:30:12.522Z,16.50
2017-05-26T20:32:40.912Z,16.50
2017-05-26T20:35:09.928Z,16.60
2017-05-26T20:37:39.105Z,16.40
2017-05-26T20:40:08.004Z,16.30
2017-05-26T20:42:36.320Z,16.30
2017-05-26T20:45:04.699Z,16.30
2017-05-26T20:47:33.108Z,16.40
2017-05-26T20:50:01.469Z,16.40
2017-05-26T20:52:29.814Z,16.20
2017-05-26T20:54:58.237Z,16.20
2017-05-26T20:57:26.695Z,16.10
2017-05-26T20:59:55.232Z,16.10
2017-05-26T21:02:23.673Z,16.00
2017-05-26T21:04:52.039Z,15.90
2017-05-26T21:07:20.408Z,15.90
2017-05-26T21:09:49.422Z,15.70
2017-05-26T21:12:17.825Z,15.70
2017-05-26T21:14:46.586Z,15.60
2017-05-26T21:17:15.627Z,15.50
2017-05-26T21:19:44.039Z,15.40
2017-05-26T21:22:12.452Z,15.40
2017-05-26T21:24:40.790Z,15.30
2017-05-26T21:27:08.465Z,15.30
2017-05-26T21:29:37.497Z,15.30
2017-05-26T21:32:06.991Z,15.40
2017-05-26T21:34:35.431Z,15.40
2017-05-26T21:37:04.435Z,15.40
2017-05-26T21:39:32.889Z,15.30
2017-05-26T21:42:01.340Z,15.30
2017-05-26T21:44:29.723Z,15.30
2017-05-26T21:46:58.106Z,15.20
2017-05-26T21:49:27.038Z,15.20
2017-05-26T21:51:55.403Z,15.20
2017-05-26T21:54:23.801Z,15.10
2017-05-26T21:56:52.258Z,15.00
2017-05-26T21:59:20.746Z,14.80
2017-05-26T22:01:49.591Z,14.80
2017-05-26T22:04:18.143Z,14.80
2017-05-26T22:06:46.532Z,14.70
2017-05-26T22:09:14.895Z,14.70
2017-05-26T22:11:43.309Z,14.70
2017-05-26T22:14:11.643Z,14.70
2017-05-26T22:16:40.977Z,14.80
2017-05-26T22:19:09.394Z,14.90
2017-05-26T22:21:43.286Z,14.80
2017-05-26T22:24:12.758Z,14.90
2017-05-26T22:26:41.120Z,15.00
2017-05-26T22:29:09.838Z,14.80
2017-05-26T22:31:38.216Z,14.70
2017-05-26T22:34:06.607Z,14.50
2017-05-26T22:36:35.019Z,14.50
2017-05-26T22:39:03.471Z,14.50
2017-05-26T22:41:32.699Z,14.50
2017-05-26T22:44:01.158Z,14.50
2017-05-26T22:46:29.547Z,14.30
2017-05-26T22:48:58.058Z,14.30
2017-05-26T22:51:26.682Z,14.30
2017-05-26T22:53:55.094Z,14.30
2017-05-26T22:56:23.649Z,14.30
2017-05-26T22:58:53.311Z,14.30
2017-05-26T23:01:21.858Z,14.50
2017-05-26T23:03:50.342Z,14.50
2017-05-26T23:06:18.889Z,14.30
2017-05-26T23:08:46.597Z,14.30
2017-05-26T23:11:15.059Z,14.60
2017-05-26T23:13:43.550Z,14.40
2017-05-26T23:16:11.965Z,14.20
2017-05-26T23:18:39.719Z,14.10
2017-05-26T23:21:08.282Z,14.10
2017-05-26T23:23:36.690Z,14.10
2017-05-26T23:26:05.103Z,14.00
2017-05-26T23:28:33.527Z,14.10
2017-05-26T23:31:01.972Z,14.00
2017-05-26T23:33:30.474Z,14.00
2017-05-26T23:35:58.890Z,14.00
2017-05-26T23:38:28.259Z,13.90
2017-05-26T23:40:56.695Z,13.80
2017-05-26T23:43:25.062Z,13.90
2017-05-26T23:45:53.432Z,13.80
2017-05-26T23:48:21.893Z,13.80
2017-05-26T23:50:50.425Z,13.80
2017-05-26T23:53:18.913Z,13.70
2017-05-26T23:55:47.416Z,13.70
2017-05-26T23:58:16.833Z,13.70
